sensor_id;sensor_type;location;lat;lon;timestamp;P1;durP1;ratioP1;P2;durP2;ratioP2
1585;SDS011;786;48.718;9.514;2023-05-16T00:02:15;18.67;;;13.32;;
1585;SDS011;786;48.718;9.514;2023-05-16T00:04:43;20.40;;;15.13;;
1585;SDS011;786;48.718;9.514;2023-05-16T00:07:11;19.55;;;15.05;;
1585;SDS011;786;48.718;9.514;2023-05-16T00:09:38;24.95;;;17.48;;
1585;SDS011;786;48.718;9.514;2023-05-16T00:12:06;20.55;;;13.68;;
1585;SDS011;786;48.718;9.514;2023-05-16T00:14:33;21.27;;;17.15;;
1585;SDS011;786;48.718;9.514;2023-05-16T00:17:00;18.42;;;13.82;;
1585;SDS011;786;48.718;9.514;2023-05-16T00:19:35;21.10;;;15.63;;
1585;SDS011;786;48.718;9.514;2023-05-16T00:22:01;19.80;;;14.38;;
1585;SDS011;786;48.718;9.514;2023-05-16T00:24:28;19.05;;;13.70;;
1585;SDS011;786;48.718;9.514;2023-05-16T00:26:54;17.13;;;13.13;;
1585;SDS011;786;48.718;9.514;2023-05-16T00:29:22;18.38;;;13.82;;
1585;SDS011;786;48.718;9.514;2023-05-16T00:31:49;17.80;;;13.38;;
1585;SDS011;786;48.718;9.514;2023-05-16T00:34:15;18.42;;;14.95;;
1585;SDS011;786;48.718;9.514;2023-05-16T00:36:41;17.98;;;14.15;;
1585;SDS011;786;48.718;9.514;2023-05-16T00:39:08;19.08;;;14.85;;
1585;SDS011;786;48.718;9.514;2023-05-16T00:41:35;23.10;;;16.77;;
1585;SDS011;786;48.718;9.514;2023-05-16T00:44:02;19.58;;;13.85;;
1585;SDS011;786;48.718;9.514;2023-05-16T00:46:30;19.73;;;14.13;;
1585;SDS011;786;48.718;9.514;2023-05-16T00:48:57;20.67;;;13.45;;
1585;SDS011;786;48.718;9.514;2023-05-16T00:51:23;24.83;;;14.55;;
1585;SDS011;786;48.718;9.514;2023-05-16T00:53:50;20.40;;;15.38;;
1585;SDS011;786;48.718;9.514;2023-05-16T00:56:16;20.63;;;15.18;;
1585;SDS011;786;48.718;9.514;2023-05-16T00:58:43;19.85;;;15.02;;
1585;SDS011;786;48.718;9.514;2023-05-16T01:01:09;19.33;;;14.13;;
1585;SDS011;786;48.718;9.514;2023-05-16T01:03:37;26.25;;;19.83;;
1585;SDS011;786;48.718;9.514;2023-05-16T01:06:04;18.10;;;13.38;;
1585;SDS011;786;48.718;9.514;2023-05-16T01:08:30;20.92;;;14.98;;
1585;SDS011;786;48.718;9.514;2023-05-16T01:10:59;14.85;;;11.07;;
1585;SDS011;786;48.718;9.514;2023-05-16T01:13:30;15.93;;;12.38;;
1585;SDS011;786;48.718;9.514;2023-05-16T01:16:03;19.23;;;13.20;;
1585;SDS011;786;48.718;9.514;2023-05-16T01:18:33;21.58;;;15.57;;
1585;SDS011;786;48.718;9.514;2023-05-16T01:21:07;19.00;;;14.18;;
1585;SDS011;786;48.718;9.514;2023-05-16T01:23:39;21.35;;;17.63;;
1585;SDS011;786;48.718;9.514;2023-05-16T01:26:12;18.92;;;13.38;;
1585;SDS011;786;48.718;9.514;2023-05-16T01:31:06;16.73;;;12.23;;
1585;SDS011;786;48.718;9.514;2023-05-16T01:33:33;20.88;;;15.50;;
1585;SDS011;786;48.718;9.514;2023-05-16T01:36:01;19.30;;;13.15;;
1585;SDS011;786;48.718;9.514;2023-05-16T01:38:29;20.15;;;15.73;;
1585;SDS011;786;48.718;9.514;2023-05-16T01:41:03;19.63;;;13.27;;
1585;SDS011;786;48.718;9.514;2023-05-16T01:43:36;22.05;;;15.02;;
1585;SDS011;786;48.718;9.514;2023-05-16T01:46:08;17.00;;;12.70;;
1585;SDS011;786;48.718;9.514;2023-05-16T01:48:38;25.52;;;17.02;;
1585;SDS011;786;48.718;9.514;2023-05-16T01:51:05;17.80;;;14.18;;
1585;SDS011;786;48.718;9.514;2023-05-16T01:53:32;21.15;;;16.17;;
1585;SDS011;786;48.718;9.514;2023-05-16T01:56:02;19.02;;;14.20;;
1585;SDS011;786;48.718;9.514;2023-05-16T01:58:29;20.23;;;13.95;;
1585;SDS011;786;48.718;9.514;2023-05-16T02:01:00;16.30;;;11.57;;
1585;SDS011;786;48.718;9.514;2023-05-16T02:03:27;17.35;;;12.75;;
1585;SDS011;786;48.718;9.514;2023-05-16T02:05:54;20.90;;;14.13;;
1585;SDS011;786;48.718;9.514;2023-05-16T02:08:20;20.23;;;13.82;;
1585;SDS011;786;48.718;9.514;2023-05-16T02:10:46;19.63;;;15.55;;
1585;SDS011;786;48.718;9.514;2023-05-16T02:13:12;18.30;;;13.27;;
1585;SDS011;786;48.718;9.514;2023-05-16T02:15:39;17.23;;;15.45;;
1585;SDS011;786;48.718;9.514;2023-05-16T02:18:07;17.42;;;13.40;;
1585;SDS011;786;48.718;9.514;2023-05-16T02:20:34;18.48;;;15.55;;
1585;SDS011;786;48.718;9.514;2023-05-16T02:23:00;19.10;;;15.32;;
1585;SDS011;786;48.718;9.514;2023-05-16T02:25:27;17.25;;;12.80;;
1585;SDS011;786;48.718;9.514;2023-05-16T02:27:54;18.23;;;13.18;;
1585;SDS011;786;48.718;9.514;2023-05-16T02:30:20;19.27;;;12.98;;
1585;SDS011;786;48.718;9.514;2023-05-16T02:32:46;20.15;;;14.07;;
1585;SDS011;786;48.718;9.514;2023-05-16T02:35:14;17.10;;;13.68;;
1585;SDS011;786;48.718;9.514;2023-05-16T02:37:40;22.63;;;17.15;;
1585;SDS011;786;48.718;9.514;2023-05-16T02:40:07;19.67;;;14.82;;
1585;SDS011;786;48.718;9.514;2023-05-16T02:42:35;20.35;;;16.25;;
1585;SDS011;786;48.718;9.514;2023-05-16T02:45:01;25.42;;;15.50;;
1585;SDS011;786;48.718;9.514;2023-05-16T02:47:28;20.58;;;16.25;;
1585;SDS011;786;48.718;9.514;2023-05-16T02:49:54;21.50;;;17.08;;
1585;SDS011;786;48.718;9.514;2023-05-16T02:52:21;20.63;;;14.55;;
1585;SDS011;786;48.718;9.514;2023-05-16T02:54:48;22.20;;;16.73;;
1585;SDS011;786;48.718;9.514;2023-05-16T02:57:14;19.85;;;14.55;;
1585;SDS011;786;48.718;9.514;2023-05-16T02:59:41;21.05;;;15.82;;
1585;SDS011;786;48.718;9.514;2023-05-16T03:02:07;20.45;;;13.85;;
1585;SDS011;786;48.718;9.514;2023-05-16T03:04:33;18.27;;;15.68;;
1585;SDS011;786;48.718;9.514;2023-05-16T03:07:00;17.70;;;14.30;;
1585;SDS011;786;48.718;9.514;2023-05-16T03:09:27;18.40;;;13.90;;
1585;SDS011;786;48.718;9.514;2023-05-16T03:11:53;19.73;;;15.52;;
1585;SDS011;786;48.718;9.514;2023-05-16T03:14:20;17.83;;;13.55;;
1585;SDS011;786;48.718;9.514;2023-05-16T03:16:46;22.95;;;19.20;;
1585;SDS011;786;48.718;9.514;2023-05-16T03:19:13;18.58;;;14.52;;
1585;SDS011;786;48.718;9.514;2023-05-16T03:21:39;23.15;;;18.20;;
1585;SDS011;786;48.718;9.514;2023-05-16T03:24:05;22.95;;;16.05;;
1585;SDS011;786;48.718;9.514;2023-05-16T03:26:34;22.70;;;16.05;;
1585;SDS011;786;48.718;9.514;2023-05-16T03:29:00;19.75;;;15.15;;
1585;SDS011;786;48.718;9.514;2023-05-16T03:31:26;18.48;;;14.32;;
1585;SDS011;786;48.718;9.514;2023-05-16T03:33:53;21.90;;;15.23;;
1585;SDS011;786;48.718;9.514;2023-05-16T03:36:20;19.80;;;15.85;;
1585;SDS011;786;48.718;9.514;2023-05-16T03:38:46;21.98;;;18.45;;
1585;SDS011;786;48.718;9.514;2023-05-16T03:41:13;19.38;;;14.98;;
1585;SDS011;786;48.718;9.514;2023-05-16T03:43:40;30.85;;;27.50;;
1585;SDS011;786;48.718;9.514;2023-05-16T03:46:07;17.33;;;13.13;;
1585;SDS011;786;48.718;9.514;2023-05-16T03:48:33;20.05;;;15.98;;
1585;SDS011;786;48.718;9.514;2023-05-16T03:50:59;16.17;;;13.02;;
1585;SDS011;786;48.718;9.514;2023-05-16T03:53:26;20.55;;;16.67;;
1585;SDS011;786;48.718;9.514;2023-05-16T03:55:52;19.42;;;15.93;;
1585;SDS011;786;48.718;9.514;2023-05-16T03:58:18;18.77;;;15.82;;
1585;SDS011;786;48.718;9.514;2023-05-16T04:00:46;23.20;;;19.92;;
1585;SDS011;786;48.718;9.514;2023-05-16T04:03:12;20.02;;;15.15;;
1585;SDS011;786;48.718;9.514;2023-05-16T04:05:39;18.90;;;16.90;;
1585;SDS011;786;48.718;9.514;2023-05-16T04:08:05;15.32;;;12.63;;
1585;SDS011;786;48.718;9.514;2023-05-16T04:10:32;18.63;;;15.70;;
1585;SDS011;786;48.718;9.514;2023-05-16T04:12:58;20.10;;;14.63;;
1585;SDS011;786;48.718;9.514;2023-05-16T04:15:24;17.65;;;14.95;;
1585;SDS011;786;48.718;9.514;2023-05-16T04:17:52;19.65;;;14.68;;
1585;SDS011;786;48.718;9.514;2023-05-16T04:20:18;16.10;;;14.40;;
1585;SDS011;786;48.718;9.514;2023-05-16T04:22:45;19.67;;;17.63;;
1585;SDS011;786;48.718;9.514;2023-05-16T04:25:11;19.17;;;15.48;;
1585;SDS011;786;48.718;9.514;2023-05-16T04:27:38;20.23;;;17.10;;
1585;SDS011;786;48.718;9.514;2023-05-16T04:30:05;16.85;;;14.98;;
1585;SDS011;786;48.718;9.514;2023-05-16T04:32:32;20.30;;;15.32;;
1585;SDS011;786;48.718;9.514;2023-05-16T04:35:02;16.40;;;14.65;;
1585;SDS011;786;48.718;9.514;2023-05-16T04:37:28;15.82;;;13.57;;
1585;SDS011;786;48.718;9.514;2023-05-16T04:39:55;15.02;;;12.75;;
1585;SDS011;786;48.718;9.514;2023-05-16T04:42:21;16.02;;;12.73;;
1585;SDS011;786;48.718;9.514;2023-05-16T04:44:48;17.75;;;15.88;;
1585;SDS011;786;48.718;9.514;2023-05-16T04:47:14;17.17;;;15.50;;
1585;SDS011;786;48.718;9.514;2023-05-16T04:49:40;17.60;;;15.77;;
1585;SDS011;786;48.718;9.514;2023-05-16T04:52:08;14.52;;;12.45;;
1585;SDS011;786;48.718;9.514;2023-05-16T04:54:36;17.05;;;15.30;;
1585;SDS011;786;48.718;9.514;2023-05-16T04:57:03;14.80;;;12.55;;
1585;SDS011;786;48.718;9.514;2023-05-16T04:59:29;14.85;;;13.23;;
1585;SDS011;786;48.718;9.514;2023-05-16T05:01:56;19.80;;;15.25;;
1585;SDS011;786;48.718;9.514;2023-05-16T05:04:23;17.10;;;15.18;;
1585;SDS011;786;48.718;9.514;2023-05-16T05:06:50;15.88;;;14.25;;
1585;SDS011;786;48.718;9.514;2023-05-16T05:09:17;22.30;;;18.58;;
1585;SDS011;786;48.718;9.514;2023-05-16T05:11:44;22.30;;;20.15;;
1585;SDS011;786;48.718;9.514;2023-05-16T05:14:10;16.15;;;14.13;;
1585;SDS011;786;48.718;9.514;2023-05-16T05:16:36;21.27;;;19.20;;
1585;SDS011;786;48.718;9.514;2023-05-16T05:19:03;15.65;;;14.02;;
1585;SDS011;786;48.718;9.514;2023-05-16T05:21:29;16.30;;;14.55;;
1585;SDS011;786;48.718;9.514;2023-05-16T05:26:33;15.82;;;14.30;;
1585;SDS011;786;48.718;9.514;2023-05-16T05:29:00;12.20;;;10.90;;
1585;SDS011;786;48.718;9.514;2023-05-16T05:31:26;13.27;;;10.93;;
1585;SDS011;786;48.718;9.514;2023-05-16T05:33:53;14.15;;;12.70;;
1585;SDS011;786;48.718;9.514;2023-05-16T05:36:20;13.10;;;11.02;;
1585;SDS011;786;48.718;9.514;2023-05-16T05:38:47;16.33;;;14.90;;
1585;SDS011;786;48.718;9.514;2023-05-16T05:41:13;12.25;;;11.05;;
1585;SDS011;786;48.718;9.514;2023-05-16T05:43:41;17.38;;;15.82;;
1585;SDS011;786;48.718;9.514;2023-05-16T05:46:07;14.25;;;12.85;;
1585;SDS011;786;48.718;9.514;2023-05-16T05:48:33;15.73;;;13.95;;
1585;SDS011;786;48.718;9.514;2023-05-16T05:51:00;12.38;;;11.15;;
1585;SDS011;786;48.718;9.514;2023-05-16T05:53:26;14.13;;;12.60;;
1585;SDS011;786;48.718;9.514;2023-05-16T05:55:53;18.10;;;15.45;;
1585;SDS011;786;48.718;9.514;2023-05-16T05:58:20;21.98;;;17.52;;
1585;SDS011;786;48.718;9.514;2023-05-16T06:00:48;25.17;;;20.15;;
1585;SDS011;786;48.718;9.514;2023-05-16T06:03:14;23.83;;;18.80;;
1585;SDS011;786;48.718;9.514;2023-05-16T06:05:41;23.63;;;18.38;;
1585;SDS011;786;48.718;9.514;2023-05-16T06:08:07;22.73;;;17.77;;
1585;SDS011;786;48.718;9.514;2023-05-16T06:10:33;21.63;;;19.33;;
1585;SDS011;786;48.718;9.514;2023-05-16T06:13:00;23.60;;;17.73;;
1585;SDS011;786;48.718;9.514;2023-05-16T06:15:26;26.65;;;20.02;;
1585;SDS011;786;48.718;9.514;2023-05-16T06:17:54;24.17;;;18.33;;
1585;SDS011;786;48.718;9.514;2023-05-16T06:20:20;24.27;;;18.15;;
1585;SDS011;786;48.718;9.514;2023-05-16T06:22:47;23.63;;;19.38;;
1585;SDS011;786;48.718;9.514;2023-05-16T06:25:13;24.05;;;19.38;;
1585;SDS011;786;48.718;9.514;2023-05-16T06:27:39;26.05;;;22.05;;
1585;SDS011;786;48.718;9.514;2023-05-16T06:30:06;23.80;;;18.23;;
1585;SDS011;786;48.718;9.514;2023-05-16T06:32:33;26.80;;;21.08;;
1585;SDS011;786;48.718;9.514;2023-05-16T06:35:01;27.30;;;18.88;;
1585;SDS011;786;48.718;9.514;2023-05-16T06:37:27;22.38;;;17.83;;
1585;SDS011;786;48.718;9.514;2023-05-16T06:39:54;21.83;;;18.20;;
1585;SDS011;786;48.718;9.514;2023-05-16T06:42:20;23.73;;;19.65;;
1585;SDS011;786;48.718;9.514;2023-05-16T06:44:47;24.05;;;19.63;;
1585;SDS011;786;48.718;9.514;2023-05-16T06:47:13;23.10;;;18.73;;
1585;SDS011;786;48.718;9.514;2023-05-16T06:49:39;25.17;;;21.65;;
1585;SDS011;786;48.718;9.514;2023-05-16T06:52:07;22.67;;;17.88;;
1585;SDS011;786;48.718;9.514;2023-05-16T06:54:33;23.08;;;19.45;;
1585;SDS011;786;48.718;9.514;2023-05-16T06:57:00;22.27;;;18.75;;
1585;SDS011;786;48.718;9.514;2023-05-16T06:59:27;20.30;;;16.15;;
1585;SDS011;786;48.718;9.514;2023-05-16T07:01:53;20.85;;;17.35;;
1585;SDS011;786;48.718;9.514;2023-05-16T07:04:20;21.75;;;16.90;;
1585;SDS011;786;48.718;9.514;2023-05-16T07:06:46;21.90;;;19.70;;
1585;SDS011;786;48.718;9.514;2023-05-16T07:09:14;17.75;;;15.65;;
1585;SDS011;786;48.718;9.514;2023-05-16T07:11:40;21.67;;;18.70;;
1585;SDS011;786;48.718;9.514;2023-05-16T07:14:07;20.27;;;16.77;;
1585;SDS011;786;48.718;9.514;2023-05-16T07:16:33;22.88;;;20.73;;
1585;SDS011;786;48.718;9.514;2023-05-16T07:19:00;19.02;;;16.25;;
1585;SDS011;786;48.718;9.514;2023-05-16T07:21:26;17.35;;;15.52;;
1585;SDS011;786;48.718;9.514;2023-05-16T07:23:53;17.67;;;15.82;;
1585;SDS011;786;48.718;9.514;2023-05-16T07:26:20;16.02;;;14.13;;
1585;SDS011;786;48.718;9.514;2023-05-16T07:28:48;19.92;;;17.83;;
1585;SDS011;786;48.718;9.514;2023-05-16T07:31:14;17.58;;;13.45;;
1585;SDS011;786;48.718;9.514;2023-05-16T07:33:41;19.45;;;17.40;;
1585;SDS011;786;48.718;9.514;2023-05-16T07:36:08;15.98;;;13.45;;
1585;SDS011;786;48.718;9.514;2023-05-16T07:38:35;20.92;;;18.63;;
1585;SDS011;786;48.718;9.514;2023-05-16T07:41:01;16.70;;;13.88;;
1585;SDS011;786;48.718;9.514;2023-05-16T07:43:29;14.98;;;13.05;;
1585;SDS011;786;48.718;9.514;2023-05-16T07:45:56;16.33;;;14.25;;
1585;SDS011;786;48.718;9.514;2023-05-16T07:48:22;16.00;;;12.93;;
1585;SDS011;786;48.718;9.514;2023-05-16T07:50:48;17.92;;;16.05;;
1585;SDS011;786;48.718;9.514;2023-05-16T07:53:15;15.13;;;13.57;;
1585;SDS011;786;48.718;9.514;2023-05-16T07:55:41;20.65;;;18.45;;
1585;SDS011;786;48.718;9.514;2023-05-16T07:58:07;14.82;;;13.10;;
1585;SDS011;786;48.718;9.514;2023-05-16T08:00:35;18.38;;;14.98;;
1585;SDS011;786;48.718;9.514;2023-05-16T08:03:01;15.27;;;13.57;;
1585;SDS011;786;48.718;9.514;2023-05-16T08:05:28;16.38;;;14.27;;
1585;SDS011;786;48.718;9.514;2023-05-16T08:07:54;15.75;;;12.68;;
1585;SDS011;786;48.718;9.514;2023-05-16T08:10:20;14.63;;;12.57;;
1585;SDS011;786;48.718;9.514;2023-05-16T08:12:48;18.15;;;16.25;;
1585;SDS011;786;48.718;9.514;2023-05-16T08:15:14;15.35;;;12.48;;
1585;SDS011;786;48.718;9.514;2023-05-16T08:17:42;19.60;;;17.65;;
1585;SDS011;786;48.718;9.514;2023-05-16T08:20:08;16.58;;;12.80;;
1585;SDS011;786;48.718;9.514;2023-05-16T08:22:35;15.55;;;13.63;;
1585;SDS011;786;48.718;9.514;2023-05-16T08:25:02;14.40;;;11.70;;
1585;SDS011;786;48.718;9.514;2023-05-16T08:27:29;12.85;;;11.32;;
1585;SDS011;786;48.718;9.514;2023-05-16T08:29:55;13.15;;;11.85;;
1585;SDS011;786;48.718;9.514;2023-05-16T08:32:21;17.33;;;11.15;;
1585;SDS011;786;48.718;9.514;2023-05-16T08:34:49;15.80;;;14.30;;
1585;SDS011;786;48.718;9.514;2023-05-16T08:37:16;12.23;;;11.02;;
1585;SDS011;786;48.718;9.514;2023-05-16T08:39:42;15.32;;;13.73;;
1585;SDS011;786;48.718;9.514;2023-05-16T08:42:08;14.90;;;11.20;;
1585;SDS011;786;48.718;9.514;2023-05-16T08:44:35;13.48;;;12.20;;
1585;SDS011;786;48.718;9.514;2023-05-16T08:47:02;12.18;;;10.02;;
1585;SDS011;786;48.718;9.514;2023-05-16T08:49:32;11.90;;;10.70;;
1585;SDS011;786;48.718;9.514;2023-05-16T08:52:01;13.55;;;10.20;;
1585;SDS011;786;48.718;9.514;2023-05-16T08:54:28;12.10;;;10.80;;
1585;SDS011;786;48.718;9.514;2023-05-16T08:56:55;10.95;;;9.82;;
1585;SDS011;786;48.718;9.514;2023-05-16T08:59:22;12.80;;;10.18;;
1585;SDS011;786;48.718;9.514;2023-05-16T09:01:49;12.68;;;11.38;;
1585;SDS011;786;48.718;9.514;2023-05-16T09:04:16;9.63;;;8.63;;
1585;SDS011;786;48.718;9.514;2023-05-16T09:06:42;14.07;;;12.73;;
1585;SDS011;786;48.718;9.514;2023-05-16T09:09:10;11.40;;;10.20;;
1585;SDS011;786;48.718;9.514;2023-05-16T09:11:36;13.30;;;12.00;;
1585;SDS011;786;48.718;9.514;2023-05-16T09:14:03;10.63;;;9.32;;
1585;SDS011;786;48.718;9.514;2023-05-16T09:16:30;11.77;;;10.60;;
1585;SDS011;786;48.718;9.514;2023-05-16T09:18:57;11.90;;;10.80;;
1585;SDS011;786;48.718;9.514;2023-05-16T09:21:25;11.75;;;10.63;;
1585;SDS011;786;48.718;9.514;2023-05-16T09:23:52;12.10;;;10.20;;
1585;SDS011;786;48.718;9.514;2023-05-16T09:26:20;10.50;;;9.50;;
1585;SDS011;786;48.718;9.514;2023-05-16T09:28:46;11.52;;;10.43;;
1585;SDS011;786;48.718;9.514;2023-05-16T09:31:19;9.73;;;8.70;;
1585;SDS011;786;48.718;9.514;2023-05-16T09:33:46;12.27;;;11.15;;
1585;SDS011;786;48.718;9.514;2023-05-16T09:36:13;11.35;;;9.18;;
1585;SDS011;786;48.718;9.514;2023-05-16T09:38:40;13.85;;;12.70;;
1585;SDS011;786;48.718;9.514;2023-05-16T09:41:07;10.60;;;9.50;;
1585;SDS011;786;48.718;9.514;2023-05-16T09:43:36;12.15;;;10.82;;
1585;SDS011;786;48.718;9.514;2023-05-16T09:46:03;10.70;;;9.40;;
1585;SDS011;786;48.718;9.514;2023-05-16T09:48:31;11.43;;;10.32;;
1585;SDS011;786;48.718;9.514;2023-05-16T09:50:57;10.10;;;9.05;;
1585;SDS011;786;48.718;9.514;2023-05-16T09:53:28;10.18;;;9.25;;
1585;SDS011;786;48.718;9.514;2023-05-16T09:55:59;10.65;;;9.55;;
1585;SDS011;786;48.718;9.514;2023-05-16T09:58:27;9.80;;;8.73;;
1585;SDS011;786;48.718;9.514;2023-05-16T10:00:56;9.80;;;8.80;;
1585;SDS011;786;48.718;9.514;2023-05-16T10:03:23;12.07;;;9.15;;
1585;SDS011;786;48.718;9.514;2023-05-16T10:05:50;12.07;;;10.85;;
1585;SDS011;786;48.718;9.514;2023-05-16T10:08:18;11.18;;;9.57;;
1585;SDS011;786;48.718;9.514;2023-05-16T10:10:46;13.23;;;12.00;;
1585;SDS011;786;48.718;9.514;2023-05-16T10:13:15;10.73;;;9.65;;
1585;SDS011;786;48.718;9.514;2023-05-16T10:15:42;13.00;;;11.85;;
1585;SDS011;786;48.718;9.514;2023-05-16T10:18:11;11.73;;;10.57;;
1585;SDS011;786;48.718;9.514;2023-05-16T10:20:38;12.45;;;11.10;;
1585;SDS011;786;48.718;9.514;2023-05-16T10:23:07;11.70;;;10.55;;
1585;SDS011;786;48.718;9.514;2023-05-16T10:25:35;11.75;;;10.63;;
1585;SDS011;786;48.718;9.514;2023-05-16T10:28:04;11.93;;;10.73;;
1585;SDS011;786;48.718;9.514;2023-05-16T10:30:32;15.75;;;10.68;;
1585;SDS011;786;48.718;9.514;2023-05-16T10:32:59;11.77;;;10.05;;
1585;SDS011;786;48.718;9.514;2023-05-16T10:35:27;11.15;;;9.98;;
1585;SDS011;786;48.718;9.514;2023-05-16T10:37:54;11.27;;;10.00;;
1585;SDS011;786;48.718;9.514;2023-05-16T10:40:21;10.73;;;9.65;;
1585;SDS011;786;48.718;9.514;2023-05-16T10:42:53;14.85;;;13.35;;
1585;SDS011;786;48.718;9.514;2023-05-16T10:45:21;13.02;;;11.73;;
1585;SDS011;786;48.718;9.514;2023-05-16T10:47:54;14.70;;;13.30;;
1585;SDS011;786;48.718;9.514;2023-05-16T10:50:35;12.30;;;11.02;;
1585;SDS011;786;48.718;9.514;2023-05-16T10:53:15;12.93;;;10.95;;
1585;SDS011;786;48.718;9.514;2023-05-16T10:55:43;15.65;;;14.20;;
1585;SDS011;786;48.718;9.514;2023-05-16T10:58:10;11.98;;;10.70;;
1585;SDS011;786;48.718;9.514;2023-05-16T11:00:38;11.88;;;10.65;;
1585;SDS011;786;48.718;9.514;2023-05-16T11:03:04;12.70;;;11.32;;
1585;SDS011;786;48.718;9.514;2023-05-16T11:05:31;12.77;;;10.50;;
1585;SDS011;786;48.718;9.514;2023-05-16T11:08:04;10.85;;;9.75;;
1585;SDS011;786;48.718;9.514;2023-05-16T11:10:31;13.15;;;11.77;;
1585;SDS011;786;48.718;9.514;2023-05-16T11:13:01;12.55;;;11.25;;
1585;SDS011;786;48.718;9.514;2023-05-16T11:15:30;11.98;;;10.52;;
1585;SDS011;786;48.718;9.514;2023-05-16T11:18:05;11.07;;;9.95;;
1585;SDS011;786;48.718;9.514;2023-05-16T11:20:32;12.10;;;10.50;;
1585;SDS011;786;48.718;9.514;2023-05-16T11:25:52;16.67;;;14.98;;
1585;SDS011;786;48.718;9.514;2023-05-16T11:28:20;14.90;;;13.35;;
1585;SDS011;786;48.718;9.514;2023-05-16T11:30:48;16.48;;;14.57;;
1585;SDS011;786;48.718;9.514;2023-05-16T11:33:16;15.07;;;13.43;;
1585;SDS011;786;48.718;9.514;2023-05-16T11:35:42;18.92;;;16.92;;
1585;SDS011;786;48.718;9.514;2023-05-16T11:38:12;13.40;;;12.10;;
1585;SDS011;786;48.718;9.514;2023-05-16T11:40:42;14.68;;;13.25;;
1585;SDS011;786;48.718;9.514;2023-05-16T11:43:09;12.75;;;11.48;;
1585;SDS011;786;48.718;9.514;2023-05-16T11:45:36;14.88;;;13.10;;
1585;SDS011;786;48.718;9.514;2023-05-16T11:48:02;13.95;;;12.15;;
1585;SDS011;786;48.718;9.514;2023-05-16T11:50:29;10.95;;;9.85;;
1585;SDS011;786;48.718;9.514;2023-05-16T11:52:55;12.68;;;11.38;;
1585;SDS011;786;48.718;9.514;2023-05-16T11:55:22;12.80;;;11.50;;
1585;SDS011;786;48.718;9.514;2023-05-16T11:57:52;14.20;;;12.75;;
1585;SDS011;786;48.718;9.514;2023-05-16T12:00:20;13.57;;;12.18;;
1585;SDS011;786;48.718;9.514;2023-05-16T12:02:48;15.70;;;14.20;;
1585;SDS011;786;48.718;9.514;2023-05-16T12:05:15;11.90;;;10.65;;
1585;SDS011;786;48.718;9.514;2023-05-16T12:07:43;15.35;;;13.85;;
1585;SDS011;786;48.718;9.514;2023-05-16T12:10:10;13.75;;;12.43;;
1585;SDS011;786;48.718;9.514;2023-05-16T12:12:39;16.67;;;14.98;;
1585;SDS011;786;48.718;9.514;2023-05-16T12:15:08;16.88;;;15.07;;
1585;SDS011;786;48.718;9.514;2023-05-16T12:17:35;17.83;;;15.32;;
1585;SDS011;786;48.718;9.514;2023-05-16T12:20:02;14.95;;;13.27;;
1585;SDS011;786;48.718;9.514;2023-05-16T12:22:30;14.07;;;12.57;;
1585;SDS011;786;48.718;9.514;2023-05-16T12:24:57;16.80;;;14.55;;
1585;SDS011;786;48.718;9.514;2023-05-16T12:27:24;14.00;;;12.50;;
1585;SDS011;786;48.718;9.514;2023-05-16T12:29:51;17.33;;;14.52;;
1585;SDS011;786;48.718;9.514;2023-05-16T12:32:19;19.50;;;15.48;;
1585;SDS011;786;48.718;9.514;2023-05-16T12:34:47;21.77;;;19.52;;
1585;SDS011;786;48.718;9.514;2023-05-16T12:37:14;15.95;;;13.82;;
1585;SDS011;786;48.718;9.514;2023-05-16T12:39:40;21.25;;;18.23;;
1585;SDS011;786;48.718;9.514;2023-05-16T12:42:07;16.25;;;13.90;;
1585;SDS011;786;48.718;9.514;2023-05-16T12:44:33;18.80;;;14.98;;
1585;SDS011;786;48.718;9.514;2023-05-16T12:47:00;16.88;;;15.00;;
1585;SDS011;786;48.718;9.514;2023-05-16T12:49:28;15.95;;;13.40;;
1585;SDS011;786;48.718;9.514;2023-05-16T12:51:55;17.35;;;14.77;;
1585;SDS011;786;48.718;9.514;2023-05-16T12:54:29;14.75;;;12.73;;
1585;SDS011;786;48.718;9.514;2023-05-16T12:56:56;15.73;;;12.13;;
1585;SDS011;786;48.718;9.514;2023-05-16T12:59:22;14.23;;;12.15;;
1585;SDS011;786;48.718;9.514;2023-05-16T13:01:49;18.27;;;15.90;;
1585;SDS011;786;48.718;9.514;2023-05-16T13:04:15;16.35;;;14.63;;
1585;SDS011;786;48.718;9.514;2023-05-16T13:06:44;18.98;;;16.38;;
1585;SDS011;786;48.718;9.514;2023-05-16T13:09:11;15.43;;;12.75;;
1585;SDS011;786;48.718;9.514;2023-05-16T13:11:37;17.55;;;15.07;;
1585;SDS011;786;48.718;9.514;2023-05-16T13:14:04;14.90;;;11.88;;
1585;SDS011;786;48.718;9.514;2023-05-16T13:16:30;12.52;;;10.43;;
1585;SDS011;786;48.718;9.514;2023-05-16T13:18:56;16.73;;;14.95;;
1585;SDS011;786;48.718;9.514;2023-05-16T13:21:23;13.13;;;11.73;;
1585;SDS011;786;48.718;9.514;2023-05-16T13:23:53;16.50;;;14.77;;
1585;SDS011;786;48.718;9.514;2023-05-16T13:26:19;13.52;;;11.88;;
1585;SDS011;786;48.718;9.514;2023-05-16T13:28:46;17.90;;;16.02;;
1585;SDS011;786;48.718;9.514;2023-05-16T13:31:15;14.32;;;12.82;;
1585;SDS011;786;48.718;9.514;2023-05-16T13:33:41;16.15;;;14.48;;
1585;SDS011;786;48.718;9.514;2023-05-16T13:36:08;14.85;;;12.65;;
1585;SDS011;786;48.718;9.514;2023-05-16T13:38:35;15.25;;;12.95;;
1585;SDS011;786;48.718;9.514;2023-05-16T13:41:02;12.30;;;10.40;;
1585;SDS011;786;48.718;9.514;2023-05-16T13:43:29;14.23;;;11.27;;
1585;SDS011;786;48.718;9.514;2023-05-16T13:45:55;13.45;;;11.50;;
1585;SDS011;786;48.718;9.514;2023-05-16T13:48:22;12.07;;;10.80;;
1585;SDS011;786;48.718;9.514;2023-05-16T13:50:49;14.82;;;12.25;;
1585;SDS011;786;48.718;9.514;2023-05-16T13:53:16;9.90;;;8.60;;
1585;SDS011;786;48.718;9.514;2023-05-16T13:55:42;15.80;;;12.85;;
1585;SDS011;786;48.718;9.514;2023-05-16T13:58:10;10.88;;;9.82;;
1585;SDS011;786;48.718;9.514;2023-05-16T14:00:36;12.10;;;10.65;;
1585;SDS011;786;48.718;9.514;2023-05-16T14:03:02;8.82;;;7.93;;
1585;SDS011;786;48.718;9.514;2023-05-16T14:05:29;8.77;;;7.88;;
1585;SDS011;786;48.718;9.514;2023-05-16T14:07:55;19.80;;;17.90;;
1585;SDS011;786;48.718;9.514;2023-05-16T14:10:22;8.80;;;7.97;;
1585;SDS011;786;48.718;9.514;2023-05-16T14:12:48;11.95;;;10.70;;
1585;SDS011;786;48.718;9.514;2023-05-16T14:15:17;8.45;;;7.63;;
1585;SDS011;786;48.718;9.514;2023-05-16T14:17:43;12.80;;;11.55;;
1585;SDS011;786;48.718;9.514;2023-05-16T14:20:10;9.00;;;8.10;;
1585;SDS011;786;48.718;9.514;2023-05-16T14:22:39;11.20;;;10.10;;
1585;SDS011;786;48.718;9.514;2023-05-16T14:25:05;11.00;;;9.90;;
1585;SDS011;786;48.718;9.514;2023-05-16T14:27:46;14.05;;;12.65;;
1585;SDS011;786;48.718;9.514;2023-05-16T14:30:14;8.70;;;7.85;;
1585;SDS011;786;48.718;9.514;2023-05-16T14:32:41;12.00;;;10.82;;
1585;SDS011;786;48.718;9.514;2023-05-16T14:35:08;9.43;;;8.32;;
1585;SDS011;786;48.718;9.514;2023-05-16T14:37:35;9.32;;;8.43;;
1585;SDS011;786;48.718;9.514;2023-05-16T14:40:01;8.65;;;7.75;;
1585;SDS011;786;48.718;9.514;2023-05-16T14:42:29;6.60;;;5.97;;
1585;SDS011;786;48.718;9.514;2023-05-16T14:44:57;10.82;;;9.82;;
1585;SDS011;786;48.718;9.514;2023-05-16T14:47:23;9.88;;;7.03;;
1585;SDS011;786;48.718;9.514;2023-05-16T14:49:49;10.50;;;8.98;;
1585;SDS011;786;48.718;9.514;2023-05-16T14:52:17;9.70;;;8.75;;
1585;SDS011;786;48.718;9.514;2023-05-16T14:54:43;13.60;;;11.73;;
1585;SDS011;786;48.718;9.514;2023-05-16T14:57:09;6.90;;;6.30;;
1585;SDS011;786;48.718;9.514;2023-05-16T14:59:36;9.38;;;8.38;;
1585;SDS011;786;48.718;9.514;2023-05-16T15:02:03;7.85;;;7.05;;
1585;SDS011;786;48.718;9.514;2023-05-16T15:04:31;8.50;;;7.32;;
1585;SDS011;786;48.718;9.514;2023-05-16T15:06:57;8.95;;;8.07;;
1585;SDS011;786;48.718;9.514;2023-05-16T15:09:23;8.95;;;6.82;;
1585;SDS011;786;48.718;9.514;2023-05-16T15:11:50;9.57;;;8.63;;
1585;SDS011;786;48.718;9.514;2023-05-16T15:14:16;9.90;;;9.00;;